createdAt,value
2018-09-20T00:00:37.277Z,28.80
2018-09-20T00:03:13.080Z,28.82
2018-09-20T00:05:49.089Z,28.83
2018-09-20T00:08:24.894Z,28.83
2018-09-20T00:11:00.881Z,28.83
2018-09-20T00:13:36.905Z,28.85
2018-09-20T00:16:12.930Z,28.86
2018-09-20T00:18:48.909Z,28.86
2018-09-20T00:21:24.897Z,28.86
2018-09-20T00:24:01.072Z,28.88
2018-09-20T00:26:36.948Z,28.90
2018-09-20T00:29:12.586Z,28.91
2018-09-20T00:31:48.733Z,28.90
2018-09-20T00:34:24.738Z,28.90
2018-09-20T00:37:00.734Z,28.90
2018-09-20T00:39:36.733Z,28.90
2018-09-20T00:42:12.924Z,28.89
2018-09-20T00:44:49.142Z,28.90
2018-09-20T00:47:25.255Z,28.90
2018-09-20T00:50:01.655Z,28.91
2018-09-20T00:52:37.667Z,28.91
2018-09-20T00:55:13.555Z,28.90
2018-09-20T00:57:49.096Z,28.91
2018-09-20T01:02:07.310Z,28.79
2018-09-20T01:04:43.100Z,28.87
2018-09-20T01:07:19.099Z,28.91
2018-09-20T01:09:56.109Z,28.93
2018-09-20T01:12:31.745Z,28.95
2018-09-20T01:15:08.098Z,28.95
2018-09-20T01:17:44.054Z,28.95
2018-09-20T01:20:20.104Z,28.96
2018-09-20T01:22:56.112Z,28.97
2018-09-20T01:25:32.140Z,28.96
2018-09-20T01:28:08.635Z,28.96
2018-09-20T01:30:44.957Z,28.95
2018-09-20T01:33:20.754Z,28.94
2018-09-20T01:35:56.936Z,28.95
2018-09-20T01:38:32.933Z,28.94
2018-09-20T01:41:08.933Z,28.95
2018-09-20T01:43:45.135Z,28.95
2018-09-20T01:46:21.220Z,28.95
2018-09-20T01:48:57.127Z,28.95
2018-09-20T01:51:33.125Z,28.95
2018-09-20T01:54:09.116Z,28.95
2018-09-20T01:56:45.212Z,28.94
2018-09-20T01:59:20.935Z,28.95
2018-09-20T02:01:56.916Z,28.94
2018-09-20T02:04:33.068Z,28.94
2018-09-20T02:07:09.123Z,28.93
2018-09-20T02:09:44.917Z,28.95
2018-09-20T02:12:20.922Z,28.94
2018-09-20T02:14:57.322Z,28.92
2018-09-20T02:17:34.129Z,28.91
2018-09-20T02:20:10.135Z,28.92
2018-09-20T02:22:46.535Z,28.92
2018-09-20T02:25:22.747Z,28.91
2018-09-20T02:27:58.574Z,28.90
2018-09-20T02:30:34.803Z,28.90
2018-09-20T02:33:11.676Z,28.89
2018-09-20T02:35:48.727Z,28.90
2018-09-20T02:38:25.131Z,28.89
2018-09-20T02:41:01.129Z,28.89
2018-09-20T02:43:36.934Z,28.89
2018-09-20T02:46:12.970Z,28.89
2018-09-20T02:48:48.838Z,28.89
2018-09-20T02:51:24.937Z,28.88
2018-09-20T02:54:02.143Z,28.87
2018-09-20T02:56:40.573Z,28.83
2018-09-20T02:59:17.150Z,28.81
2018-09-20T03:01:53.154Z,28.80
2018-09-20T03:04:29.135Z,28.80
2018-09-20T03:07:05.873Z,28.79
2018-09-20T03:09:41.968Z,28.78
2018-09-20T03:14:22.961Z,28.75
2018-09-20T03:16:58.338Z,28.75
2018-09-20T03:19:35.168Z,28.74
2018-09-20T03:22:11.130Z,28.74
2018-09-20T03:24:46.598Z,28.75
2018-09-20T03:27:23.302Z,28.76
2018-09-20T03:29:58.909Z,28.74
2018-09-20T03:32:34.625Z,28.74
2018-09-20T03:35:10.728Z,28.75
2018-09-20T03:37:48.305Z,28.76
2018-09-20T03:40:23.901Z,28.75
2018-09-20T03:43:00.306Z,28.74
2018-09-20T03:45:35.886Z,28.74
2018-09-20T03:48:12.979Z,28.78
2018-09-20T03:50:49.600Z,28.77
2018-09-20T03:53:25.337Z,28.77
2018-09-20T03:56:00.792Z,28.77
2018-09-20T03:58:36.981Z,28.76
2018-09-20T04:01:20.380Z,28.76
2018-09-20T04:03:55.746Z,28.77
2018-09-20T04:06:33.389Z,28.77
2018-09-20T04:09:15.355Z,28.78
2018-09-20T04:11:50.976Z,28.76
2018-09-20T04:14:26.741Z,28.76
2018-09-20T04:17:02.359Z,28.74
2018-09-20T04:19:38.114Z,28.75
2018-09-20T04:22:14.565Z,28.76
2018-09-20T04:24:50.172Z,28.78
2018-09-20T04:27:25.732Z,28.76
2018-09-20T04:30:01.401Z,28.78
2018-09-20T04:32:36.993Z,28.79
2018-09-20T04:35:12.173Z,28.82
2018-09-20T04:37:47.412Z,28.83
2018-09-20T04:40:23.158Z,28.85
2018-09-20T04:42:58.907Z,28.86
2018-09-20T04:45:34.193Z,28.86
2018-09-20T04:48:09.793Z,28.88
2018-09-20T04:50:45.334Z,28.91
2018-09-20T04:53:20.996Z,28.91
2018-09-20T04:58:48.974Z,28.87
2018-09-20T05:01:24.890Z,28.86
2018-09-20T05:04:00.915Z,28.87
2018-09-20T05:06:36.377Z,28.88
2018-09-20T05:09:16.374Z,28.89
2018-09-20T05:11:52.047Z,28.89
2018-09-20T05:14:27.962Z,28.92
2018-09-20T05:17:04.383Z,28.89
2018-09-20T05:19:40.713Z,28.91
2018-09-20T05:22:16.623Z,28.93
2018-09-20T05:24:52.626Z,28.92
2018-09-20T05:27:28.801Z,28.97
2018-09-20T05:30:04.974Z,28.98
2018-09-20T05:32:41.178Z,28.99
2018-09-20T05:35:16.927Z,29.00
2018-09-20T05:37:52.935Z,29.02
2018-09-20T05:40:29.166Z,29.02
2018-09-20T05:43:05.136Z,29.02
2018-09-20T05:45:41.006Z,29.03
2018-09-20T05:48:17.371Z,29.04
2018-09-20T05:50:53.257Z,29.05
2018-09-20T05:53:29.226Z,29.05
2018-09-20T05:56:05.057Z,29.06
2018-09-20T05:58:41.251Z,29.04
2018-09-20T06:01:17.130Z,29.04
2018-09-20T06:03:52.950Z,29.05
2018-09-20T06:06:29.218Z,29.05
2018-09-20T06:09:05.193Z,29.05
2018-09-20T06:11:41.413Z,29.07
2018-09-20T06:14:17.367Z,29.09
2018-09-20T06:16:53.218Z,29.10
2018-09-20T06:19:29.365Z,29.11
2018-09-20T06:23:15.840Z,29.10
2018-09-20T06:25:51.839Z,29.12
2018-09-20T06:28:28.031Z,29.12
2018-09-20T06:31:04.827Z,29.12
2018-09-20T06:33:40.669Z,29.12
2018-09-20T06:36:16.856Z,29.13
2018-09-20T06:38:52.941Z,29.13
2018-09-20T06:41:28.962Z,29.13
2018-09-20T06:44:05.009Z,29.14
2018-09-20T06:46:41.005Z,29.13
2018-09-20T06:49:16.973Z,29.14
2018-09-20T06:51:53.030Z,29.15
2018-09-20T06:54:29.406Z,29.14
2018-09-20T06:57:05.221Z,29.14
2018-09-20T06:59:41.201Z,29.14
2018-09-20T07:02:16.930Z,29.15
2018-09-20T07:04:52.920Z,29.15
2018-09-20T07:07:29.044Z,29.16
2018-09-20T07:10:05.202Z,29.17
2018-09-20T07:12:41.241Z,29.16
2018-09-20T07:15:17.420Z,29.17
2018-09-20T07:17:53.245Z,29.16
2018-09-20T07:20:29.026Z,29.16
2018-09-20T07:23:04.983Z,29.15
2018-09-20T07:25:41.048Z,29.15
2018-09-20T07:28:17.422Z,29.14
2018-09-20T07:30:53.603Z,29.12
2018-09-20T07:33:29.926Z,29.12
2018-09-20T07:36:06.433Z,29.12
2018-09-20T07:38:42.477Z,29.11
2018-09-20T07:41:19.051Z,29.10
2018-09-20T07:43:55.087Z,29.09
2018-09-20T07:46:30.944Z,29.06
2018-09-20T07:49:07.054Z,29.06
2018-09-20T07:51:43.322Z,29.05
2018-09-20T07:54:19.250Z,29.04
2018-09-20T07:56:55.441Z,29.03
2018-09-20T07:59:31.673Z,29.02
2018-09-20T08:02:07.937Z,29.01
2018-09-20T08:04:44.338Z,29.00
2018-09-20T08:07:20.418Z,29.01
2018-09-20T08:09:56.241Z,29.02
2018-09-20T08:12:32.724Z,29.03
2018-09-20T08:15:09.204Z,29.00
2018-09-20T08:17:45.047Z,29.01
2018-09-20T08:20:21.240Z,28.99
2018-09-20T08:22:57.270Z,28.99
2018-09-20T08:25:33.054Z,28.99
2018-09-20T08:28:09.750Z,28.98
2018-09-20T08:30:46.065Z,28.98
2018-09-20T08:33:22.245Z,28.97
2018-09-20T08:35:58.247Z,28.97
2018-09-20T08:38:34.246Z,28.97
2018-09-20T08:41:10.146Z,28.98
2018-09-20T08:43:46.254Z,28.97
2018-09-20T08:46:22.101Z,28.95
2018-09-20T08:48:58.078Z,28.95
2018-09-20T08:51:34.054Z,28.94
2018-09-20T08:54:10.087Z,28.92
2018-09-20T08:56:46.086Z,28.92
2018-09-20T08:59:22.069Z,28.91
2018-09-20T09:01:57.703Z,28.90
2018-09-20T09:04:34.118Z,28.88
2018-09-20T09:07:10.063Z,28.88
2018-09-20T09:09:46.061Z,28.87
2018-09-20T09:12:21.921Z,28.86
2018-09-20T09:14:57.940Z,28.85
2018-09-20T09:17:34.097Z,28.83
2018-09-20T09:20:09.701Z,28.83
2018-09-20T09:22:45.910Z,28.82
2018-09-20T09:25:21.997Z,28.82
2018-09-20T09:27:58.093Z,28.81
2018-09-20T09:30:34.268Z,28.79
2018-09-20T09:33:10.069Z,28.79
2018-09-20T09:35:46.069Z,28.78
2018-09-20T09:38:21.897Z,28.77
2018-09-20T09:40:58.117Z,28.76
2018-09-20T09:43:34.377Z,28.75
2018-09-20T09:46:10.746Z,28.74
2018-09-20T09:48:46.758Z,28.73
2018-09-20T09:51:22.978Z,28.74
2018-09-20T09:53:58.741Z,28.71
2018-09-20T09:56:34.441Z,28.70
2018-09-20T09:59:10.465Z,28.70
2018-09-20T10:01:46.505Z,28.67
2018-09-20T10:04:22.761Z,28.66
2018-09-20T10:06:58.734Z,28.66
2018-09-20T10:09:34.437Z,28.63
2018-09-20T10:12:10.388Z,28.62
2018-09-20T10:14:46.277Z,28.59
2018-09-20T10:17:22.281Z,28.57
2018-09-20T10:19:58.016Z,28.56
2018-09-20T10:22:33.924Z,28.55
2018-09-20T10:25:10.113Z,28.53
2018-09-20T10:27:45.948Z,28.52
2018-09-20T10:30:21.721Z,28.51
2018-09-20T10:32:57.665Z,28.49
2018-09-20T10:35:33.945Z,28.47
2018-09-20T10:38:10.109Z,28.46
2018-09-20T10:40:46.010Z,28.45
2018-09-20T10:43:22.107Z,28.44
2018-09-20T10:45:57.923Z,28.42
2018-09-20T10:48:34.118Z,28.41
2018-09-20T10:51:10.126Z,28.41
2018-09-20T10:53:45.889Z,28.39
2018-09-20T10:56:22.001Z,28.39
2018-09-20T10:58:57.810Z,28.37
2018-09-20T11:01:34.108Z,28.32
2018-09-20T11:04:10.180Z,28.33
2018-09-20T11:06:46.125Z,28.33
2018-09-20T11:09:22.136Z,28.31
2018-09-20T11:11:58.304Z,28.31
2018-09-20T11:14:34.014Z,28.31
2018-09-20T11:17:10.301Z,28.27
2018-09-20T11:19:46.921Z,28.27
2018-09-20T11:22:23.038Z,28.23
2018-09-20T11:24:59.066Z,28.25
2018-09-20T11:27:35.361Z,28.23
2018-09-20T11:30:11.318Z,28.20
2018-09-20T11:32:47.485Z,28.18
2018-09-20T11:35:23.526Z,28.18
2018-09-20T11:37:59.490Z,28.16
2018-09-20T11:40:35.725Z,28.14
2018-09-20T11:43:12.038Z,28.13
2018-09-20T11:45:48.262Z,28.11
2018-09-20T11:48:24.136Z,28.10
2018-09-20T11:51:00.113Z,28.08
2018-09-20T11:53:36.045Z,28.07
2018-09-20T11:56:12.050Z,28.06
2018-09-20T11:58:48.180Z,28.05
2018-09-20T12:01:24.231Z,28.03
2018-09-20T12:04:00.145Z,28.03
2018-09-20T12:06:36.147Z,28.02
2018-09-20T12:09:13.001Z,28.01
2018-09-20T12:11:48.825Z,28.01
2018-09-20T12:14:25.186Z,28.01
2018-09-20T12:17:01.325Z,28.01
2018-09-20T12:19:37.318Z,28.00
2018-09-20T12:22:13.511Z,27.98
2018-09-20T12:24:49.828Z,27.99
2018-09-20T12:27:25.901Z,27.96
2018-09-20T12:30:02.272Z,27.98
2018-09-20T12:32:38.162Z,27.96
2018-09-20T12:35:13.939Z,27.95
2018-09-20T12:37:50.173Z,27.93
2018-09-20T12:40:26.318Z,27.93
2018-09-20T12:43:02.447Z,27.91
2018-09-20T12:45:38.977Z,27.90
2018-09-20T12:48:15.391Z,27.88
2018-09-20T12:50:51.333Z,27.87
2018-09-20T12:53:27.361Z,27.85
2018-09-20T12:56:03.378Z,27.85
2018-09-20T12:58:47.654Z,27.84
2018-09-20T13:01:24.283Z,27.84
2018-09-20T13:04:00.157Z,27.81
2018-09-20T13:06:36.366Z,27.81
2018-09-20T13:09:14.342Z,27.78
2018-09-20T13:11:50.369Z,27.76
2018-09-20T13:14:26.730Z,27.75
2018-09-20T13:17:03.163Z,27.74
2018-09-20T13:19:39.573Z,27.71
2018-09-20T13:22:16.174Z,27.71
2018-09-20T13:24:52.665Z,27.71
2018-09-20T13:27:28.491Z,27.70
2018-09-20T13:30:04.658Z,27.68
2018-09-20T13:32:41.139Z,27.68
2018-09-20T13:35:17.414Z,27.66
2018-09-20T13:37:53.630Z,27.66
2018-09-20T13:40:29.387Z,27.71
2018-09-20T13:43:05.503Z,27.73
2018-09-20T13:45:42.299Z,27.75
2018-09-20T13:48:18.523Z,27.79
2018-09-20T13:50:54.858Z,27.81
2018-09-20T13:53:31.174Z,27.82
2018-09-20T13:56:07.353Z,27.84
2018-09-20T13:58:46.910Z,27.86
2018-09-20T14:01:23.150Z,27.88
2018-09-20T14:03:59.222Z,27.91
2018-09-20T14:06:35.191Z,27.91
2018-09-20T14:09:15.034Z,27.93
2018-09-20T14:11:51.381Z,27.96
2018-09-20T14:14:27.523Z,27.97
2018-09-20T14:17:03.878Z,27.99
2018-09-20T14:19:40.247Z,28.00
2018-09-20T14:22:16.259Z,28.02
2018-09-20T14:24:52.183Z,28.04
2018-09-20T14:27:28.359Z,28.06
2018-09-20T14:30:04.671Z,28.06
2018-09-20T14:32:41.128Z,28.07
2018-09-20T14:35:17.526Z,28.07
2018-09-20T14:37:53.799Z,28.10
2018-09-20T14:40:30.211Z,28.09
2018-09-20T14:43:06.388Z,28.11
2018-09-20T14:45:42.871Z,28.13
2018-09-20T14:48:19.090Z,28.13
2018-09-20T14:50:55.500Z,28.14
2018-09-20T14:53:32.803Z,28.14
2018-09-20T14:56:09.197Z,28.17
2018-09-20T14:58:45.498Z,28.17
2018-09-20T15:01:21.928Z,28.18
2018-09-20T15:03:58.371Z,28.18
2018-09-20T15:06:34.682Z,28.19
2018-09-20T15:09:14.931Z,28.21
2018-09-20T15:11:51.203Z,28.23
2018-09-20T15:14:28.242Z,28.23
2018-09-20T15:17:04.785Z,28.24
2018-09-20T15:19:41.367Z,28.26
2018-09-20T15:22:17.433Z,28.26
2018-09-20T15:24:53.364Z,28.24
2018-09-20T15:27:29.327Z,28.18
2018-09-20T15:30:05.194Z,28.14
2018-09-20T15:32:41.401Z,28.09
2018-09-20T15:35:17.134Z,28.04
2018-09-20T15:37:53.094Z,28.01
2018-09-20T15:40:29.133Z,27.97
2018-09-20T15:43:04.542Z,27.92
2018-09-20T15:45:40.181Z,27.89
2018-09-20T15:48:15.398Z,27.87
2018-09-20T15:50:51.011Z,27.83
2018-09-20T15:53:27.211Z,27.80
2018-09-20T15:56:02.847Z,27.78
2018-09-20T15:58:38.840Z,27.76
2018-09-20T16:01:15.890Z,27.74
2018-09-20T16:03:51.581Z,27.72
2018-09-20T16:06:27.217Z,27.71
2018-09-20T16:09:02.591Z,27.69
2018-09-20T16:11:37.985Z,27.64
2018-09-20T16:14:13.598Z,27.60
2018-09-20T16:16:49.973Z,27.63
2018-09-20T16:19:25.982Z,27.65
2018-09-20T16:22:02.252Z,27.69
2018-09-20T16:24:40.857Z,27.75
2018-09-20T16:27:16.483Z,27.76
2018-09-20T16:30:15.541Z,27.78
2018-09-20T16:33:04.691Z,27.81
2018-09-20T16:35:52.009Z,27.79
2018-09-20T16:38:36.927Z,27.79
2018-09-20T16:41:14.952Z,27.80
2018-09-20T16:43:50.603Z,27.82
2018-09-20T16:46:26.232Z,27.83
2018-09-20T16:49:01.403Z,27.84
2018-09-20T16:51:36.783Z,27.86
2018-09-20T16:54:12.149Z,27.86
2018-09-20T16:56:47.597Z,27.88
2018-09-20T16:59:22.855Z,27.87
2018-09-20T17:01:58.229Z,27.89
2018-09-20T17:04:33.683Z,27.92
2018-09-20T17:07:09.440Z,27.98
2018-09-20T17:09:44.891Z,28.00
2018-09-20T17:12:18.966Z,28.05
2018-09-20T17:14:54.273Z,28.08
2018-09-20T17:17:29.617Z,28.11
2018-09-20T17:20:05.295Z,28.12
2018-09-20T17:22:41.026Z,28.13
2018-09-20T17:25:16.634Z,28.15
2018-09-20T17:27:52.260Z,28.16
2018-09-20T17:30:28.241Z,28.18
2018-09-20T17:33:04.213Z,28.21
2018-09-20T17:35:40.536Z,28.22
2018-09-20T17:38:17.450Z,28.23
2018-09-20T17:40:57.496Z,28.25
2018-09-20T17:43:42.904Z,28.23
2018-09-20T17:46:18.449Z,28.27
2018-09-20T17:48:54.168Z,28.30
2018-09-20T17:51:30.434Z,28.32
2018-09-20T17:54:06.622Z,28.38
2018-09-20T17:56:43.426Z,28.41
2018-09-20T17:59:19.593Z,28.42
2018-09-20T18:01:55.007Z,28.43
2018-09-20T18:04:30.605Z,28.42
2018-09-20T18:07:06.155Z,28.45
2018-09-20T18:09:41.694Z,28.47
2018-09-20T18:12:17.245Z,28.49
2018-09-20T18:14:52.450Z,28.51
2018-09-20T18:17:28.074Z,28.54
2018-09-20T18:20:03.861Z,28.53
2018-09-20T18:22:39.433Z,28.53
2018-09-20T18:25:15.043Z,28.54
2018-09-20T18:27:48.507Z,28.54
2018-09-20T18:30:23.697Z,28.49
2018-09-20T18:32:59.285Z,28.55
2018-09-20T18:35:34.885Z,28.55
2018-09-20T18:38:10.759Z,28.57
2018-09-20T18:40:46.054Z,28.56
2018-09-20T18:43:21.630Z,28.57
2018-09-20T18:45:57.068Z,28.56
2018-09-20T18:48:32.874Z,28.57
2018-09-20T18:51:08.444Z,28.58
2018-09-20T18:53:44.080Z,28.57
2018-09-20T18:56:20.993Z,28.58
2018-09-20T18:58:56.445Z,28.59
2018-09-20T19:01:32.022Z,28.59
2018-09-20T19:04:07.644Z,28.59
2018-09-20T19:06:43.251Z,28.61
2018-09-20T19:09:18.650Z,28.62
2018-09-20T19:11:54.293Z,28.58
2018-09-20T19:17:22.553Z,28.59
2018-09-20T19:19:58.157Z,28.65
2018-09-20T19:22:33.494Z,28.66
2018-09-20T19:25:08.923Z,28.67
2018-09-20T19:27:44.080Z,28.69
2018-09-20T19:30:19.639Z,28.68
2018-09-20T19:32:54.951Z,28.69
2018-09-20T19:35:30.661Z,28.68
2018-09-20T19:38:06.035Z,28.70
2018-09-20T19:40:41.867Z,28.71
2018-09-20T19:43:18.184Z,28.73
2018-09-20T19:45:54.219Z,28.72
2018-09-20T19:48:29.662Z,28.73
2018-09-20T19:51:05.632Z,28.75
2018-09-20T19:53:41.479Z,28.74
2018-09-20T19:56:17.442Z,28.73
2018-09-20T19:58:54.682Z,28.71
2018-09-20T20:01:30.624Z,28.70
2018-09-20T20:04:06.201Z,28.70
2018-09-20T20:06:42.169Z,28.70
2018-09-20T20:09:18.418Z,28.71
2018-09-20T20:11:54.193Z,28.71
2018-09-20T20:14:30.294Z,28.70
2018-09-20T20:17:06.201Z,28.70
2018-09-20T20:19:42.322Z,28.70
2018-09-20T20:22:18.217Z,28.73
2018-09-20T20:24:54.269Z,28.73
2018-09-20T20:27:30.300Z,28.75
2018-09-20T20:30:06.193Z,28.76
2018-09-20T20:32:42.245Z,28.75
2018-09-20T20:35:18.302Z,28.77
2018-09-20T20:37:54.303Z,28.77
2018-09-20T20:40:30.301Z,28.79
2018-09-20T20:43:06.849Z,28.80
2018-09-20T20:45:42.978Z,28.79
2018-09-20T20:48:19.106Z,28.79
2018-09-20T20:50:55.293Z,28.80
2018-09-20T20:53:31.121Z,28.81
2018-09-20T20:56:07.276Z,28.84
2018-09-20T20:58:43.359Z,28.84
2018-09-20T21:01:21.932Z,28.85
2018-09-20T21:03:57.921Z,28.87
2018-09-20T21:06:33.928Z,28.88
2018-09-20T21:09:11.881Z,28.89
2018-09-20T21:11:48.218Z,28.91
2018-09-20T21:14:24.227Z,28.90
2018-09-20T21:17:00.514Z,28.91
2018-09-20T21:19:36.521Z,28.91
2018-09-20T21:22:12.504Z,28.93
2018-09-20T21:24:48.688Z,28.92
2018-09-20T21:27:24.670Z,28.94
2018-09-20T21:30:00.685Z,28.94
2018-09-20T21:32:36.689Z,28.95
2018-09-20T21:35:12.662Z,28.97
2018-09-20T21:37:48.701Z,28.94
2018-09-20T21:40:24.316Z,28.99
2018-09-20T21:43:01.104Z,29.00
2018-09-20T21:45:37.529Z,29.01
2018-09-20T21:48:13.555Z,29.03
2018-09-20T21:50:49.532Z,29.04
2018-09-20T21:53:25.313Z,29.06
2018-09-20T21:56:01.630Z,29.07
2018-09-20T22:01:17.503Z,29.10
2018-09-20T22:03:54.205Z,29.11
2018-09-20T22:06:30.317Z,29.12
2018-09-20T22:09:07.336Z,29.13
2018-09-20T22:11:43.636Z,29.14
2018-09-20T22:14:20.228Z,29.16
2018-09-20T22:16:56.370Z,29.16
2018-09-20T22:19:32.512Z,29.18
2018-09-20T22:22:08.675Z,29.19
2018-09-20T22:24:48.670Z,29.19
2018-09-20T22:27:24.942Z,29.20
2018-09-20T22:30:01.343Z,29.21
2018-09-20T22:32:37.514Z,29.22
2018-09-20T22:35:13.471Z,29.21
2018-09-20T22:37:49.324Z,29.24
2018-09-20T22:40:25.338Z,29.24
2018-09-20T22:43:01.338Z,29.25
2018-09-20T22:45:37.978Z,29.25
2018-09-20T22:48:14.128Z,29.25
2018-09-20T22:50:50.380Z,29.28
2018-09-20T22:53:26.921Z,29.30
2018-09-20T22:56:02.960Z,29.31
2018-09-20T22:58:39.345Z,29.27
2018-09-20T23:01:19.535Z,29.33
2018-09-20T23:03:55.526Z,29.35
2018-09-20T23:06:31.388Z,29.35
2018-09-20T23:09:09.123Z,29.36
2018-09-20T23:11:45.378Z,29.37
2018-09-20T23:14:21.343Z,29.40
2018-09-20T23:16:58.320Z,29.40
2018-09-20T23:19:34.334Z,29.40
2018-09-20T23:22:10.815Z,29.42
2018-09-20T23:24:47.039Z,29.43
2018-09-20T23:27:23.009Z,29.45
2018-09-20T23:29:59.152Z,29.45
2018-09-20T23:32:35.275Z,29.46
2018-09-20T23:35:10.841Z,29.47
2018-09-20T23:37:47.080Z,29.45
2018-09-20T23:40:22.717Z,29.47
2018-09-20T23:42:58.374Z,29.50
2018-09-20T23:45:34.369Z,29.50
2018-09-20T23:48:10.560Z,29.51
2018-09-20T23:50:46.367Z,29.54
2018-09-20T23:53:22.545Z,29.52
2018-09-20T23:55:58.548Z,29.54
2018-09-20T23:58:34.369Z,29.54
